createdAt,value
2018-08-12T00:03:53.984Z,18.07
2018-08-12T00:08:46.574Z,18.03
2018-08-12T00:13:39.514Z,17.90
2018-08-12T00:18:32.183Z,17.70
2018-08-12T00:23:24.912Z,17.59
2018-08-12T00:28:17.597Z,17.35
2018-08-12T00:33:10.167Z,17.18
2018-08-12T00:38:02.761Z,17.04
2018-08-12T00:42:55.439Z,16.97
2018-08-12T00:47:48.530Z,16.85
2018-08-12T00:52:41.220Z,16.76
2018-08-12T00:57:33.823Z,16.86
2018-08-12T01:02:26.427Z,16.95
2018-08-12T01:07:18.977Z,17.01
2018-08-12T01:12:11.523Z,17.09
2018-08-12T01:17:04.390Z,17.00
2018-08-12T01:21:56.982Z,16.89
2018-08-12T01:26:49.605Z,16.83
2018-08-12T01:31:42.168Z,16.84
2018-08-12T01:36:34.752Z,16.72
2018-08-12T01:41:27.464Z,16.59
2018-08-12T01:46:20.075Z,16.50
2018-08-12T01:51:12.675Z,16.37
2018-08-12T01:56:05.254Z,16.26
2018-08-12T02:00:57.832Z,16.13
2018-08-12T02:05:50.532Z,16.04
2018-08-12T02:10:43.289Z,15.95
2018-08-12T02:15:35.893Z,15.87
2018-08-12T02:20:28.538Z,15.80
2018-08-12T02:25:21.105Z,15.75
2018-08-12T02:30:13.690Z,15.68
2018-08-12T02:35:06.581Z,15.68
2018-08-12T02:39:59.130Z,15.72
2018-08-12T02:44:51.727Z,15.67
2018-08-12T02:49:44.369Z,15.62
2018-08-12T02:54:36.936Z,15.68
2018-08-12T02:59:29.506Z,15.79
2018-08-12T03:04:22.070Z,15.65
2018-08-12T03:09:14.718Z,15.51
2018-08-12T03:14:08.065Z,15.46
2018-08-12T03:19:00.631Z,15.41
2018-08-12T03:23:53.194Z,15.34
2018-08-12T03:28:45.727Z,15.31
2018-08-12T03:33:38.331Z,15.33
2018-08-12T03:38:30.889Z,15.39
2018-08-12T03:43:23.590Z,15.48
2018-08-12T03:48:16.203Z,15.47
2018-08-12T03:53:08.765Z,15.43
2018-08-12T03:58:01.310Z,15.29
2018-08-12T04:02:53.874Z,15.20
2018-08-12T04:07:46.516Z,15.19
2018-08-12T04:12:39.417Z,15.24
2018-08-12T04:17:31.962Z,15.29
2018-08-12T04:22:24.645Z,15.29
2018-08-12T04:27:17.225Z,15.31
2018-08-12T04:32:09.792Z,15.28
2018-08-12T04:37:02.408Z,15.27
2018-08-12T04:41:55.005Z,15.25
2018-08-12T04:46:47.557Z,15.25
2018-08-12T04:51:40.163Z,15.26
2018-08-12T04:56:32.734Z,15.25
2018-08-12T05:01:25.354Z,15.26
2018-08-12T05:06:18.010Z,15.27
2018-08-12T05:11:10.954Z,15.29
2018-08-12T05:16:03.547Z,15.36
2018-08-12T05:20:56.238Z,15.44
2018-08-12T05:25:48.842Z,15.50
2018-08-12T05:30:41.397Z,15.55
2018-08-12T05:35:34.066Z,15.62
2018-08-12T05:40:26.741Z,15.72
2018-08-12T05:45:19.396Z,15.79
2018-08-12T05:50:11.975Z,15.89
2018-08-12T05:55:05.330Z,16.01
2018-08-12T05:59:58.014Z,16.09
2018-08-12T06:04:50.575Z,16.15
2018-08-12T06:09:43.406Z,16.27
2018-08-12T06:14:36.044Z,16.37
2018-08-12T06:19:28.883Z,16.48
2018-08-12T06:24:21.538Z,16.59
2018-08-12T06:29:14.259Z,16.73
2018-08-12T06:34:06.851Z,16.88
2018-08-12T06:38:59.895Z,17.00
2018-08-12T06:43:52.530Z,17.12
2018-08-12T06:48:45.139Z,17.24
2018-08-12T06:53:37.775Z,17.40
2018-08-12T06:58:30.434Z,17.55
2018-08-12T07:03:23.169Z,18.05
2018-08-12T07:08:15.786Z,19.09
2018-08-12T07:13:08.457Z,20.20
2018-08-12T07:18:01.280Z,20.82
2018-08-12T07:22:53.872Z,21.39
2018-08-12T07:27:46.489Z,22.08
2018-08-12T07:32:39.405Z,22.37
2018-08-12T07:37:32.100Z,22.57
2018-08-12T07:42:24.698Z,22.67
2018-08-12T07:47:17.309Z,22.81
2018-08-12T07:52:09.988Z,22.90
2018-08-12T07:57:02.615Z,23.07
2018-08-12T08:01:55.367Z,23.16
2018-08-12T08:06:48.159Z,23.21
2018-08-12T08:11:42.754Z,22.99
2018-08-12T08:16:35.550Z,22.91
2018-08-12T08:21:28.319Z,22.82
2018-08-12T08:26:21.217Z,22.84
2018-08-12T08:31:13.929Z,22.80
2018-08-12T08:36:06.582Z,22.85
2018-08-12T08:40:59.277Z,22.99
2018-08-12T08:45:52.212Z,23.02
2018-08-12T08:50:44.939Z,22.86
2018-08-12T08:55:37.643Z,22.71
2018-08-12T09:00:30.237Z,22.80
2018-08-12T09:05:22.954Z,23.01
2018-08-12T09:10:16.690Z,22.92
2018-08-12T09:15:12.319Z,22.92
2018-08-12T09:20:07.457Z,22.93
2018-08-12T09:25:00.071Z,23.02
2018-08-12T09:29:52.802Z,23.10
2018-08-12T09:34:45.492Z,23.32
2018-08-12T09:39:38.111Z,23.28
2018-08-12T09:44:30.737Z,23.30
2018-08-12T09:49:23.390Z,23.46
2018-08-12T09:54:16.076Z,23.69
2018-08-12T09:59:08.652Z,23.82
2018-08-12T10:04:01.305Z,24.03
2018-08-12T10:08:54.091Z,24.18
2018-08-12T10:13:46.757Z,24.35
2018-08-12T10:18:39.480Z,24.57
2018-08-12T10:23:32.138Z,24.49
2018-08-12T10:28:25.041Z,24.25
2018-08-12T10:33:17.808Z,24.38
2018-08-12T10:38:10.460Z,24.47
2018-08-12T10:43:03.332Z,24.57
2018-08-12T10:47:55.966Z,24.59
2018-08-12T10:52:49.309Z,24.66
2018-08-12T10:57:42.086Z,24.80
2018-08-12T11:02:34.748Z,25.00
2018-08-12T11:07:27.413Z,25.13
2018-08-12T11:12:20.350Z,25.39
2018-08-12T11:17:13.036Z,25.65
2018-08-12T11:22:05.729Z,25.64
2018-08-12T11:26:58.342Z,25.59
2018-08-12T11:31:50.997Z,25.58
2018-08-12T11:36:43.617Z,25.43
2018-08-12T11:41:36.238Z,25.62
2018-08-12T11:46:28.969Z,25.97
2018-08-12T11:51:21.866Z,26.27
2018-08-12T11:56:14.903Z,26.45
2018-08-12T12:01:07.599Z,26.63
2018-08-12T12:06:00.295Z,26.64
2018-08-12T12:10:52.898Z,26.69
2018-08-12T12:15:45.564Z,26.85
2018-08-12T12:20:38.189Z,27.18
2018-08-12T12:25:30.945Z,27.29
2018-08-12T12:30:23.644Z,27.24
2018-08-12T12:35:16.289Z,27.30
2018-08-12T12:40:11.667Z,27.53
2018-08-12T12:45:06.474Z,27.80
2018-08-12T12:49:59.249Z,27.79
2018-08-12T12:54:51.976Z,27.70
2018-08-12T12:59:44.803Z,27.61
2018-08-12T13:04:37.468Z,27.60
2018-08-12T13:09:30.264Z,27.49
2018-08-12T13:14:23.051Z,27.73
2018-08-12T13:19:16.197Z,27.96
2018-08-12T13:24:08.802Z,28.03
2018-08-12T13:29:01.790Z,28.09
2018-08-12T13:33:54.428Z,28.37
2018-08-12T13:38:47.058Z,28.60
2018-08-12T13:43:40.145Z,28.60
2018-08-12T13:48:32.721Z,28.60
2018-08-12T13:53:25.585Z,28.66
2018-08-12T13:58:18.304Z,28.66
2018-08-12T14:03:10.914Z,28.45
2018-08-12T14:08:03.751Z,28.50
2018-08-12T14:12:56.378Z,28.68
2018-08-12T14:17:49.785Z,28.94
2018-08-12T14:22:42.492Z,29.04
2018-08-12T14:27:35.146Z,29.13
2018-08-12T14:32:27.864Z,29.02
2018-08-12T14:37:20.498Z,28.88
2018-08-12T14:42:13.322Z,28.85
2018-08-12T14:47:06.072Z,28.80
2018-08-12T14:51:58.709Z,28.88
2018-08-12T14:56:51.628Z,28.98
2018-08-12T15:01:44.254Z,29.13
2018-08-12T15:06:37.114Z,29.26
2018-08-12T15:11:29.677Z,29.35
2018-08-12T15:16:22.405Z,29.39
2018-08-12T15:21:14.938Z,29.15
2018-08-12T15:26:08.038Z,29.10
2018-08-12T15:31:00.757Z,29.11
2018-08-12T15:35:53.428Z,29.08
2018-08-12T15:40:46.111Z,29.04
2018-08-12T15:45:38.792Z,29.10
2018-08-12T15:50:31.428Z,29.03
2018-08-12T15:55:24.011Z,28.99
2018-08-12T16:00:19.196Z,28.94
2018-08-12T16:05:11.842Z,28.90
2018-08-12T16:10:22.759Z,28.78
2018-08-12T16:15:15.565Z,28.64
2018-08-12T16:20:09.392Z,28.64
2018-08-12T16:25:02.075Z,28.63
2018-08-12T16:29:54.989Z,28.52
2018-08-12T16:34:47.653Z,28.51
2018-08-12T16:39:40.237Z,28.54
2018-08-12T16:44:32.847Z,28.47
2018-08-12T16:49:25.630Z,28.49
2018-08-12T16:54:18.361Z,28.46
2018-08-12T16:59:10.998Z,28.41
2018-08-12T17:04:03.610Z,28.40
2018-08-12T17:08:56.268Z,28.37
2018-08-12T17:13:48.907Z,28.31
2018-08-12T17:18:41.633Z,28.22
2018-08-12T17:23:34.338Z,28.17
2018-08-12T17:28:26.929Z,28.21
2018-08-12T17:33:19.482Z,28.25
2018-08-12T17:38:12.096Z,28.20
2018-08-12T17:43:04.817Z,28.11
2018-08-12T17:47:57.483Z,28.01
2018-08-12T17:52:53.471Z,27.89
2018-08-12T17:57:49.686Z,27.79
2018-08-12T18:02:46.210Z,27.69
2018-08-12T18:07:39.899Z,27.55
2018-08-12T18:12:32.470Z,27.42
2018-08-12T18:17:25.011Z,27.26
2018-08-12T18:22:17.653Z,27.12
2018-08-12T18:27:10.388Z,27.00
2018-08-12T18:32:02.918Z,26.88
2018-08-12T18:36:55.469Z,26.74
2018-08-12T18:41:48.267Z,26.64
2018-08-12T18:46:40.884Z,26.53
2018-08-12T18:51:33.757Z,26.45
2018-08-12T18:56:26.419Z,26.36
2018-08-12T19:01:19.108Z,26.29
2018-08-12T19:06:11.606Z,26.23
2018-08-12T19:11:04.291Z,26.13
2018-08-12T19:15:56.915Z,26.05
2018-08-12T19:20:49.505Z,25.98
2018-08-12T19:25:42.102Z,25.87
2018-08-12T19:30:34.749Z,25.79
2018-08-12T19:35:27.411Z,25.72
2018-08-12T19:40:19.948Z,25.62
2018-08-12T19:45:12.589Z,25.54
2018-08-12T19:50:05.801Z,25.40
2018-08-12T19:54:58.316Z,25.26
2018-08-12T19:59:50.912Z,25.24
2018-08-12T20:04:43.487Z,25.24
2018-08-12T20:09:36.084Z,25.33
2018-08-12T20:14:28.691Z,25.29
2018-08-12T20:19:21.266Z,25.23
2018-08-12T20:24:13.885Z,25.13
2018-08-12T20:29:06.516Z,25.00
2018-08-12T20:33:59.218Z,24.95
2018-08-12T20:38:51.835Z,24.92
2018-08-12T20:43:44.558Z,24.87
2018-08-12T20:48:37.109Z,24.85
2018-08-12T20:53:29.690Z,24.84
2018-08-12T20:58:22.330Z,24.79
2018-08-12T21:03:15.171Z,24.73
2018-08-12T21:08:07.669Z,24.66
2018-08-12T21:13:00.250Z,24.65
2018-08-12T21:17:52.935Z,24.65
2018-08-12T21:22:45.643Z,24.61
2018-08-12T21:27:38.276Z,24.53
2018-08-12T21:32:30.841Z,24.43
2018-08-12T21:37:23.711Z,24.32
2018-08-12T21:42:16.314Z,24.24
2018-08-12T21:47:08.850Z,24.21
2018-08-12T21:52:01.427Z,24.15
2018-08-12T21:56:54.038Z,24.09
2018-08-12T22:01:46.635Z,24.02
2018-08-12T22:06:39.307Z,23.90
2018-08-12T22:11:31.850Z,23.76
2018-08-12T22:16:24.582Z,23.59
2018-08-12T22:21:17.125Z,23.42
2018-08-12T22:26:09.740Z,23.31
2018-08-12T22:31:02.393Z,23.27
2018-08-12T22:35:55.043Z,23.17
2018-08-12T22:40:47.878Z,23.08
2018-08-12T22:45:40.482Z,22.98
2018-08-12T22:50:33.076Z,22.93
2018-08-12T22:55:25.727Z,22.86
2018-08-12T23:00:19.139Z,22.80
2018-08-12T23:05:11.716Z,22.71
2018-08-12T23:10:05.396Z,22.63
2018-08-12T23:15:15.730Z,22.56
2018-08-12T23:20:08.335Z,22.44
2018-08-12T23:25:01.710Z,22.38
2018-08-12T23:29:54.269Z,22.31
2018-08-12T23:34:46.902Z,22.28
2018-08-12T23:39:39.496Z,22.15
2018-08-12T23:44:32.057Z,22.04
2018-08-12T23:49:24.665Z,21.97
2018-08-12T23:54:17.297Z,21.92
2018-08-12T23:59:09.853Z,21.83
